createdAt,value
2023-02-25T00:05:27.732Z,19.1
2023-02-25T00:11:20.760Z,19.1
2023-02-25T00:17:14.918Z,19.1
2023-02-25T00:23:08.538Z,19.1
2023-02-25T00:29:09.923Z,19.1
2023-02-25T00:35:02.805Z,19.1
2023-02-25T00:41:01.951Z,19.1
2023-02-25T00:46:55.744Z,19.1
2023-02-25T00:52:39.713Z,19.1
2023-02-25T00:58:32.808Z,19.1
2023-02-25T01:04:32.252Z,19.1
2023-02-25T01:10:27.825Z,19.1
2023-02-25T01:16:22.091Z,19
2023-02-25T01:21:44.308Z,19
2023-02-25T01:27:21.943Z,19.1
2023-02-25T01:33:17.261Z,19.1
2023-02-25T01:39:10.151Z,19
2023-02-25T01:45:02.933Z,19.1
2023-02-25T01:50:56.441Z,19.1
2023-02-25T01:56:50.453Z,19.1
2023-02-25T02:02:43.183Z,19.1
2023-02-25T02:08:37.058Z,19.1
2023-02-25T02:14:30.506Z,19.1
2023-02-25T02:20:23.109Z,19.1
2023-02-25T02:26:16.178Z,19.1
2023-02-25T02:31:53.485Z,19.1
2023-02-25T02:37:46.963Z,19.1
2023-02-25T02:43:24.545Z,19.1
2023-02-25T02:49:17.428Z,19.1
2023-02-25T02:55:10.313Z,19.1
2023-02-25T03:00:47.349Z,19
2023-02-25T03:06:41.546Z,19.1
2023-02-25T03:12:18.855Z,19.1
2023-02-25T03:17:41.493Z,19
2023-02-25T03:23:20.301Z,19.1
2023-02-25T03:28:57.374Z,19.1
2023-02-25T03:34:35.308Z,19.1
2023-02-25T03:40:11.888Z,19.1
2023-02-25T03:45:49.632Z,19.1
2023-02-25T03:51:28.545Z,19.1
2023-02-25T03:56:50.663Z,19.1
2023-02-25T04:02:28.175Z,19.1
2023-02-25T04:08:06.559Z,19.1
2023-02-25T04:13:58.726Z,19.1
2023-02-25T04:19:21.250Z,19.1
2023-02-25T04:25:13.649Z,19.1
2023-02-25T04:30:36.972Z,19.1
2023-02-25T04:36:31.726Z,19.1
2023-02-25T04:42:25.474Z,19.1
2023-02-25T04:48:19.820Z,19.1
2023-02-25T04:54:13.672Z,19
2023-02-25T05:00:05.911Z,19
2023-02-25T05:05:59.452Z,19.1
2023-02-25T05:11:54.430Z,19.1
2023-02-25T05:17:33.456Z,19.2
2023-02-25T05:23:11.414Z,19.3
2023-02-25T05:29:04.128Z,19.3
2023-02-25T05:34:42.762Z,19.3
2023-02-25T05:40:20.388Z,19.3
2023-02-25T05:46:12.800Z,19.3
2023-02-25T05:51:50.558Z,19.3
2023-02-25T05:57:26.794Z,19.3
2023-02-25T06:03:05.059Z,19.3
2023-02-25T06:08:42.571Z,19.3
2023-02-25T06:14:19.523Z,19.4
2023-02-25T06:20:13.323Z,19.4
2023-02-25T06:25:51.238Z,19.4
2023-02-25T06:31:44.783Z,19.3
2023-02-25T06:37:07.906Z,19.3
2023-02-25T06:43:01.474Z,19.3
2023-02-25T06:48:55.731Z,19.3
2023-02-25T06:54:33.048Z,19.2
2023-02-25T07:00:11.435Z,19.2
2023-02-25T07:05:49.925Z,19.2
2023-02-25T07:11:28.087Z,19.3
2023-02-25T07:16:51.193Z,19.3
2023-02-25T07:22:28.025Z,19.3
2023-02-25T07:28:04.858Z,19.2
2023-02-25T07:33:59.790Z,19.2
2023-02-25T07:39:53.103Z,19.1
2023-02-25T07:45:44.777Z,19.1
2023-02-25T07:51:37.922Z,19.1
2023-02-25T07:57:31.784Z,19
2023-02-25T08:03:28.021Z,19.1
2023-02-25T08:09:23.413Z,22.4
2023-02-25T08:15:16.361Z,23.9
2023-02-25T08:21:09.224Z,24.1
2023-02-25T08:27:03.306Z,24.6
2023-02-25T08:32:58.671Z,25.1
2023-02-25T08:38:36.693Z,25.5
2023-02-25T08:44:32.044Z,25.9
2023-02-25T08:50:25.017Z,25.9
2023-02-25T08:56:17.897Z,24.8
2023-02-25T09:02:10.625Z,24.4
2023-02-25T09:08:06.385Z,24.1
2023-02-25T09:14:12.539Z,23.9
2023-02-25T09:19:50.438Z,23.8
2023-02-25T09:25:42.918Z,23.6
2023-02-25T09:31:35.481Z,23.5
2023-02-25T09:37:29.570Z,23.4
2023-02-25T09:43:22.237Z,23.2
2023-02-25T09:49:02.717Z,23.1
2023-02-25T09:54:41.224Z,23.1
2023-02-25T10:00:18.098Z,23
2023-02-25T10:05:56.533Z,22.9
2023-02-25T10:11:34.246Z,22.9
2023-02-25T10:17:16.581Z,22.8
2023-02-25T10:22:53.401Z,22.8
2023-02-25T10:28:30.250Z,22.8
2023-02-25T10:34:23.773Z,22.8
2023-02-25T10:40:16.407Z,22.8
2023-02-25T10:46:09.736Z,22.8
2023-02-25T10:52:09.217Z,22.7
2023-02-25T10:58:01.818Z,22.7
2023-02-25T11:03:56.292Z,22.6
2023-02-25T11:09:48.910Z,22.7
2023-02-25T11:15:59.353Z,22.8
2023-02-25T11:21:55.811Z,22.8
2023-02-25T11:27:47.643Z,22.8
2023-02-25T11:33:44.262Z,22.8
2023-02-25T11:39:40.968Z,22.5
2023-02-25T11:45:33.595Z,22.4
2023-02-25T11:51:26.753Z,22.4
2023-02-25T11:56:48.829Z,22.6
2023-02-25T12:02:41.674Z,22.6
2023-02-25T12:08:49.313Z,22.9
2023-02-25T12:14:41.407Z,23
2023-02-25T12:20:18.872Z,22.8
2023-02-25T12:26:12.186Z,22.8
2023-02-25T12:32:05.026Z,22.7
2023-02-25T12:37:57.591Z,22.8
2023-02-25T12:43:54.440Z,22.9
2023-02-25T12:49:47.825Z,23.1
2023-02-25T12:55:41.900Z,23.4
2023-02-25T13:01:20.247Z,23.6
2023-02-25T13:07:13.824Z,24
2023-02-25T13:13:32.662Z,24.8
2023-02-25T13:19:25.424Z,25
2023-02-25T13:25:19.030Z,25.1
2023-02-25T13:31:11.987Z,25
2023-02-25T13:37:06.086Z,24.8
2023-02-25T13:42:43.257Z,24.8
2023-02-25T13:48:35.637Z,24.8
2023-02-25T13:54:31.371Z,24.6
2023-02-25T14:00:24.156Z,24.3
2023-02-25T14:06:16.410Z,24.1
2023-02-25T14:12:14.088Z,24
2023-02-25T14:18:07.277Z,23.8
2023-02-25T14:24:00.666Z,23.8
2023-02-25T14:29:23.431Z,23.8
2023-02-25T14:35:17.140Z,23.8
2023-02-25T14:41:10.178Z,23.8
2023-02-25T14:47:02.877Z,23.7
2023-02-25T14:52:55.594Z,23.6
2023-02-25T14:58:48.256Z,23.4
2023-02-25T15:04:42.185Z,23.4
2023-02-25T15:10:36.930Z,23.3
2023-02-25T15:16:29.532Z,23.1
2023-02-25T15:22:08.190Z,22.9
2023-02-25T15:28:00.964Z,22.8
2023-02-25T15:33:55.911Z,22.7
2023-02-25T15:39:48.129Z,22.6
2023-02-25T15:45:43.611Z,22.8
2023-02-25T15:51:04.971Z,23.5
2023-02-25T15:56:58.852Z,22.9
2023-02-25T16:02:37.163Z,22.5
2023-02-25T16:08:34.418Z,22.3
2023-02-25T16:14:26.780Z,22
2023-02-25T16:20:21.105Z,21.8
2023-02-25T16:26:13.727Z,21.6
2023-02-25T16:32:07.274Z,21.6
2023-02-25T16:38:05.239Z,21.4
2023-02-25T16:43:50.722Z,21.3
2023-02-25T16:49:44.305Z,21.3
2023-02-25T16:55:37.894Z,21.2
2023-02-25T17:07:09.038Z,21.1
2023-02-25T17:13:01.818Z,21.1
2023-02-25T17:18:55.908Z,20.9
2023-02-25T17:24:34.396Z,20.9
2023-02-25T17:30:28.179Z,20.9
2023-02-25T17:36:22.583Z,20.9
2023-02-25T17:42:18.241Z,20.8
2023-02-25T17:48:12.401Z,20.9
2023-02-25T17:54:06.927Z,20.9
2023-02-25T18:00:02.116Z,20.8
2023-02-25T18:05:57.070Z,20.9
2023-02-25T18:11:51.244Z,20.9
2023-02-25T18:17:55.426Z,20.9
2023-02-25T18:23:49.487Z,20.9
2023-02-25T18:29:43.433Z,21
2023-02-25T18:41:18.950Z,21.2
2023-02-25T18:47:13.804Z,21.3
2023-02-25T18:53:08.308Z,21.4
2023-02-25T18:59:01.816Z,21.6
2023-02-25T19:04:40.132Z,21.7
2023-02-25T19:10:33.679Z,21.8
2023-02-25T19:16:28.189Z,21.9
2023-02-25T19:22:21.682Z,22
2023-02-25T19:28:14.488Z,22.1
2023-02-25T19:34:10.548Z,22.3
2023-02-25T19:39:47.722Z,22.4
2023-02-25T19:45:41.668Z,22.5
2023-02-25T19:51:35.152Z,22.6
2023-02-25T19:57:29.820Z,22.7
2023-02-25T20:03:23.759Z,22.8
2023-02-25T20:09:18.508Z,22.8
2023-02-25T20:15:11.618Z,22.9
2023-02-25T20:21:06.640Z,22.9
2023-02-25T20:27:03.142Z,22.8
2023-02-25T20:32:56.917Z,22.6
2023-02-25T20:38:37.971Z,22.4
2023-02-25T20:44:31.240Z,22.3
2023-02-25T20:50:26.895Z,22.3
2023-02-25T20:56:19.799Z,22.2
2023-02-25T21:02:13.272Z,22.1
2023-02-25T21:08:08.343Z,22.1
2023-02-25T21:14:02.679Z,22.2
2023-02-25T21:19:56.272Z,22.4
2023-02-25T21:25:49.734Z,22.7
2023-02-25T21:31:44.144Z,22.8
2023-02-25T21:37:38.871Z,22.9
2023-02-25T21:43:32.052Z,22.9
2023-02-25T21:49:24.933Z,22.9
2023-02-25T21:55:17.461Z,23
2023-02-25T22:01:10.403Z,22.9
2023-02-25T22:07:04.386Z,22.9
2023-02-25T22:12:57.081Z,22.9
2023-02-25T22:18:49.951Z,22.9
2023-02-25T22:24:44.382Z,22.9
2023-02-25T22:30:38.769Z,22.8
2023-02-25T22:36:31.770Z,22.8
2023-02-25T22:42:08.861Z,22.8
2023-02-25T22:47:47.193Z,22.8
2023-02-25T22:53:38.389Z,22.8
2023-02-25T22:59:30.574Z,22.7
2023-02-25T23:05:22.345Z,22.6
2023-02-25T23:11:29.692Z,22.6
2023-02-25T23:17:24.610Z,22.6
2023-02-25T23:23:16.927Z,22.6
2023-02-25T23:29:09.945Z,22.6
2023-02-25T23:35:02.987Z,22.6
2023-02-25T23:40:56.908Z,22.5
2023-02-25T23:46:53.596Z,22.5
2023-02-25T23:52:47.144Z,22.4
2023-02-25T23:58:40.780Z,22.4
